sensor_id;sensor_type;location;lat;lon;timestamp;P1;durP1;ratioP1;P2;durP2;ratioP2
21166;SDS011;10741;52.272;9.580;2022-11-15T00:00:46;27.60;;;15.83;;
21166;SDS011;10741;52.272;9.580;2022-11-15T00:03:15;29.60;;;16.70;;
21166;SDS011;10741;52.272;9.580;2022-11-15T00:05:43;27.50;;;16.93;;
21166;SDS011;10741;52.272;9.580;2022-11-15T00:08:09;33.37;;;19.90;;
21166;SDS011;10741;52.272;9.580;2022-11-15T00:10:36;28.70;;;17.70;;
21166;SDS011;10741;52.272;9.580;2022-11-15T00:13:09;31.80;;;16.37;;
21166;SDS011;10741;52.272;9.580;2022-11-15T00:15:37;25.93;;;16.50;;
21166;SDS011;10741;52.272;9.580;2022-11-15T00:18:03;25.17;;;16.20;;
21166;SDS011;10741;52.272;9.580;2022-11-15T00:20:31;20.27;;;13.97;;
21166;SDS011;10741;52.272;9.580;2022-11-15T00:22:59;20.50;;;14.30;;
21166;SDS011;10741;52.272;9.580;2022-11-15T00:25:25;20.90;;;13.73;;
21166;SDS011;10741;52.272;9.580;2022-11-15T00:27:54;20.37;;;13.57;;
21166;SDS011;10741;52.272;9.580;2022-11-15T00:30:21;17.60;;;12.00;;
21166;SDS011;10741;52.272;9.580;2022-11-15T00:32:47;14.63;;;11.13;;
21166;SDS011;10741;52.272;9.580;2022-11-15T00:35:13;13.20;;;10.83;;
21166;SDS011;10741;52.272;9.580;2022-11-15T00:37:39;12.60;;;10.37;;
21166;SDS011;10741;52.272;9.580;2022-11-15T00:40:05;18.10;;;10.57;;
21166;SDS011;10741;52.272;9.580;2022-11-15T00:42:31;15.13;;;10.47;;
21166;SDS011;10741;52.272;9.580;2022-11-15T00:44:57;15.63;;;10.20;;
21166;SDS011;10741;52.272;9.580;2022-11-15T00:47:23;14.33;;;9.87;;
21166;SDS011;10741;52.272;9.580;2022-11-15T00:49:48;13.00;;;8.80;;
21166;SDS011;10741;52.272;9.580;2022-11-15T00:52:14;12.10;;;9.40;;
21166;SDS011;10741;52.272;9.580;2022-11-15T00:54:40;11.67;;;8.67;;
21166;SDS011;10741;52.272;9.580;2022-11-15T00:57:05;12.27;;;8.20;;
21166;SDS011;10741;52.272;9.580;2022-11-15T00:59:31;12.23;;;8.53;;
21166;SDS011;10741;52.272;9.580;2022-11-15T01:01:57;12.47;;;8.23;;
21166;SDS011;10741;52.272;9.580;2022-11-15T01:04:22;10.10;;;8.13;;
21166;SDS011;10741;52.272;9.580;2022-11-15T01:06:48;11.80;;;8.47;;
21166;SDS011;10741;52.272;9.580;2022-11-15T01:09:14;11.77;;;8.53;;
21166;SDS011;10741;52.272;9.580;2022-11-15T01:11:40;9.83;;;8.50;;
21166;SDS011;10741;52.272;9.580;2022-11-15T01:14:05;11.47;;;8.37;;
21166;SDS011;10741;52.272;9.580;2022-11-15T01:16:31;13.70;;;9.00;;
21166;SDS011;10741;52.272;9.580;2022-11-15T01:18:58;14.70;;;9.20;;
21166;SDS011;10741;52.272;9.580;2022-11-15T01:21:24;12.13;;;9.83;;
21166;SDS011;10741;52.272;9.580;2022-11-15T01:23:53;18.50;;;10.13;;
21166;SDS011;10741;52.272;9.580;2022-11-15T01:26:20;13.73;;;10.80;;
21166;SDS011;10741;52.272;9.580;2022-11-15T01:28:46;13.27;;;9.80;;
21166;SDS011;10741;52.272;9.580;2022-11-15T01:31:13;12.77;;;9.63;;
21166;SDS011;10741;52.272;9.580;2022-11-15T01:33:41;12.73;;;9.87;;
21166;SDS011;10741;52.272;9.580;2022-11-15T01:36:08;11.20;;;9.00;;
21166;SDS011;10741;52.272;9.580;2022-11-15T01:38:37;14.23;;;9.77;;
21166;SDS011;10741;52.272;9.580;2022-11-15T01:41:03;13.63;;;11.07;;
21166;SDS011;10741;52.272;9.580;2022-11-15T01:45:58;14.00;;;10.63;;
21166;SDS011;10741;52.272;9.580;2022-11-15T01:48:44;14.53;;;10.30;;
21166;SDS011;10741;52.272;9.580;2022-11-15T01:51:10;13.20;;;10.10;;
21166;SDS011;10741;52.272;9.580;2022-11-15T01:53:40;15.30;;;10.97;;
21166;SDS011;10741;52.272;9.580;2022-11-15T01:56:11;15.50;;;10.67;;
21166;SDS011;10741;52.272;9.580;2022-11-15T01:58:39;20.43;;;11.97;;
21166;SDS011;10741;52.272;9.580;2022-11-15T02:01:07;15.57;;;11.00;;
21166;SDS011;10741;52.272;9.580;2022-11-15T02:03:34;16.47;;;10.93;;
21166;SDS011;10741;52.272;9.580;2022-11-15T02:06:06;15.33;;;11.27;;
21166;SDS011;10741;52.272;9.580;2022-11-15T02:08:33;15.17;;;10.70;;
21166;SDS011;10741;52.272;9.580;2022-11-15T02:10:58;14.70;;;11.03;;
21166;SDS011;10741;52.272;9.580;2022-11-15T02:13:24;16.07;;;10.47;;
21166;SDS011;10741;52.272;9.580;2022-11-15T02:18:26;15.30;;;10.27;;
21166;SDS011;10741;52.272;9.580;2022-11-15T02:21:06;16.87;;;10.77;;
21166;SDS011;10741;52.272;9.580;2022-11-15T02:27:01;17.70;;;11.83;;
21166;SDS011;10741;52.272;9.580;2022-11-15T02:32:25;23.57;;;15.30;;
21166;SDS011;10741;52.272;9.580;2022-11-15T02:38:11;19.83;;;13.83;;
21166;SDS011;10741;52.272;9.580;2022-11-15T02:40:53;21.40;;;14.80;;
21166;SDS011;10741;52.272;9.580;2022-11-15T02:43:53;17.53;;;12.97;;
21166;SDS011;10741;52.272;9.580;2022-11-15T02:49:35;18.77;;;12.73;;
21166;SDS011;10741;52.272;9.580;2022-11-15T02:52:02;14.33;;;11.67;;
21166;SDS011;10741;52.272;9.580;2022-11-15T02:54:29;14.60;;;10.77;;
21166;SDS011;10741;52.272;9.580;2022-11-15T02:57:16;15.10;;;10.43;;
21166;SDS011;10741;52.272;9.580;2022-11-15T03:08:21;11.13;;;9.87;;
21166;SDS011;10741;52.272;9.580;2022-11-15T03:16:10;18.40;;;10.97;;
21166;SDS011;10741;52.272;9.580;2022-11-15T03:18:53;13.47;;;10.37;;
21166;SDS011;10741;52.272;9.580;2022-11-15T03:21:23;12.97;;;9.73;;
21166;SDS011;10741;52.272;9.580;2022-11-15T03:23:49;11.33;;;9.70;;
21166;SDS011;10741;52.272;9.580;2022-11-15T03:26:18;10.97;;;8.40;;
21166;SDS011;10741;52.272;9.580;2022-11-15T03:31:16;14.63;;;9.03;;
21166;SDS011;10741;52.272;9.580;2022-11-15T03:34:05;13.87;;;8.93;;
21166;SDS011;10741;52.272;9.580;2022-11-15T03:36:35;13.03;;;8.33;;
21166;SDS011;10741;52.272;9.580;2022-11-15T03:39:05;14.23;;;9.50;;
21166;SDS011;10741;52.272;9.580;2022-11-15T03:41:48;14.60;;;8.90;;
21166;SDS011;10741;52.272;9.580;2022-11-15T03:47:14;10.70;;;8.40;;
21166;SDS011;10741;52.272;9.580;2022-11-15T03:50:03;10.80;;;8.10;;
21166;SDS011;10741;52.272;9.580;2022-11-15T03:52:35;10.53;;;7.97;;
21166;SDS011;10741;52.272;9.580;2022-11-15T03:55:03;12.57;;;9.07;;
21166;SDS011;10741;52.272;9.580;2022-11-15T03:57:30;9.70;;;8.07;;
21166;SDS011;10741;52.272;9.580;2022-11-15T03:59:56;9.77;;;7.90;;
21166;SDS011;10741;52.272;9.580;2022-11-15T04:02:22;12.70;;;8.00;;
21166;SDS011;10741;52.272;9.580;2022-11-15T04:04:48;10.73;;;8.73;;
21166;SDS011;10741;52.272;9.580;2022-11-15T04:07:13;10.50;;;8.17;;
21166;SDS011;10741;52.272;9.580;2022-11-15T04:09:39;9.57;;;8.03;;
21166;SDS011;10741;52.272;9.580;2022-11-15T04:12:23;10.37;;;7.80;;
21166;SDS011;10741;52.272;9.580;2022-11-15T04:15:17;10.10;;;7.57;;
21166;SDS011;10741;52.272;9.580;2022-11-15T04:17:47;9.03;;;7.30;;
21166;SDS011;10741;52.272;9.580;2022-11-15T04:20:25;8.80;;;7.07;;
21166;SDS011;10741;52.272;9.580;2022-11-15T04:26:03;9.97;;;7.10;;
21166;SDS011;10741;52.272;9.580;2022-11-15T04:28:30;9.73;;;7.53;;
21166;SDS011;10741;52.272;9.580;2022-11-15T04:30:56;9.33;;;6.83;;
21166;SDS011;10741;52.272;9.580;2022-11-15T04:33:22;8.80;;;7.13;;
21166;SDS011;10741;52.272;9.580;2022-11-15T04:35:49;9.97;;;6.97;;
21166;SDS011;10741;52.272;9.580;2022-11-15T04:38:44;10.47;;;7.00;;
21166;SDS011;10741;52.272;9.580;2022-11-15T04:41:10;10.00;;;7.00;;
21166;SDS011;10741;52.272;9.580;2022-11-15T04:43:35;9.63;;;6.87;;
21166;SDS011;10741;52.272;9.580;2022-11-15T04:46:01;10.70;;;7.10;;
21166;SDS011;10741;52.272;9.580;2022-11-15T04:48:27;8.37;;;6.93;;
21166;SDS011;10741;52.272;9.580;2022-11-15T04:50:53;10.27;;;7.57;;
21166;SDS011;10741;52.272;9.580;2022-11-15T04:53:18;10.97;;;7.53;;
21166;SDS011;10741;52.272;9.580;2022-11-15T04:55:47;9.33;;;7.67;;
21166;SDS011;10741;52.272;9.580;2022-11-15T04:58:13;10.00;;;8.13;;
21166;SDS011;10741;52.272;9.580;2022-11-15T05:00:39;12.23;;;7.83;;
21166;SDS011;10741;52.272;9.580;2022-11-15T05:03:04;12.27;;;7.93;;
21166;SDS011;10741;52.272;9.580;2022-11-15T05:05:49;10.50;;;7.93;;
21166;SDS011;10741;52.272;9.580;2022-11-15T05:08:14;10.67;;;7.80;;
21166;SDS011;10741;52.272;9.580;2022-11-15T05:10:40;10.37;;;7.60;;
21166;SDS011;10741;52.272;9.580;2022-11-15T05:13:07;11.33;;;8.13;;
21166;SDS011;10741;52.272;9.580;2022-11-15T05:15:32;12.60;;;9.33;;
21166;SDS011;10741;52.272;9.580;2022-11-15T05:17:59;9.67;;;7.87;;
21166;SDS011;10741;52.272;9.580;2022-11-15T05:20:25;10.27;;;8.00;;
21166;SDS011;10741;52.272;9.580;2022-11-15T05:22:52;10.43;;;7.60;;
21166;SDS011;10741;52.272;9.580;2022-11-15T05:25:18;11.23;;;7.50;;
21166;SDS011;10741;52.272;9.580;2022-11-15T05:27:44;9.33;;;7.47;;
21166;SDS011;10741;52.272;9.580;2022-11-15T05:30:10;12.13;;;7.90;;
21166;SDS011;10741;52.272;9.580;2022-11-15T05:32:36;9.20;;;7.33;;
21166;SDS011;10741;52.272;9.580;2022-11-15T05:35:02;8.23;;;7.00;;
21166;SDS011;10741;52.272;9.580;2022-11-15T05:37:28;11.47;;;8.23;;
21166;SDS011;10741;52.272;9.580;2022-11-15T05:39:54;9.10;;;7.40;;
21166;SDS011;10741;52.272;9.580;2022-11-15T05:42:20;8.53;;;7.17;;
21166;SDS011;10741;52.272;9.580;2022-11-15T05:44:47;10.80;;;8.37;;
21166;SDS011;10741;52.272;9.580;2022-11-15T05:47:16;10.43;;;8.17;;
21166;SDS011;10741;52.272;9.580;2022-11-15T05:49:45;8.97;;;7.87;;
21166;SDS011;10741;52.272;9.580;2022-11-15T05:52:14;10.50;;;8.43;;
21166;SDS011;10741;52.272;9.580;2022-11-15T05:54:43;11.47;;;9.20;;
21166;SDS011;10741;52.272;9.580;2022-11-15T05:57:09;12.87;;;10.13;;
21166;SDS011;10741;52.272;9.580;2022-11-15T05:59:35;18.90;;;15.33;;
21166;SDS011;10741;52.272;9.580;2022-11-15T06:02:02;12.87;;;9.73;;
21166;SDS011;10741;52.272;9.580;2022-11-15T06:04:27;12.37;;;8.10;;
21166;SDS011;10741;52.272;9.580;2022-11-15T06:06:53;11.60;;;8.40;;
21166;SDS011;10741;52.272;9.580;2022-11-15T06:09:19;11.53;;;7.80;;
21166;SDS011;10741;52.272;9.580;2022-11-15T06:11:45;9.27;;;7.43;;
21166;SDS011;10741;52.272;9.580;2022-11-15T06:14:10;9.37;;;7.33;;
21166;SDS011;10741;52.272;9.580;2022-11-15T06:16:36;10.73;;;7.70;;
21166;SDS011;10741;52.272;9.580;2022-11-15T06:19:02;9.70;;;7.47;;
21166;SDS011;10741;52.272;9.580;2022-11-15T06:21:27;9.83;;;6.97;;
21166;SDS011;10741;52.272;9.580;2022-11-15T06:23:54;8.80;;;6.13;;
21166;SDS011;10741;52.272;9.580;2022-11-15T06:26:20;8.30;;;6.90;;
21166;SDS011;10741;52.272;9.580;2022-11-15T06:28:46;6.40;;;5.80;;
21166;SDS011;10741;52.272;9.580;2022-11-15T06:31:11;8.90;;;6.70;;
21166;SDS011;10741;52.272;9.580;2022-11-15T06:33:37;8.13;;;6.40;;
21166;SDS011;10741;52.272;9.580;2022-11-15T06:36:05;10.07;;;7.47;;
21166;SDS011;10741;52.272;9.580;2022-11-15T06:38:32;9.23;;;7.03;;
21166;SDS011;10741;52.272;9.580;2022-11-15T06:41:02;8.37;;;6.83;;
21166;SDS011;10741;52.272;9.580;2022-11-15T06:43:29;8.17;;;6.93;;
21166;SDS011;10741;52.272;9.580;2022-11-15T06:45:55;9.17;;;6.80;;
21166;SDS011;10741;52.272;9.580;2022-11-15T06:48:22;8.47;;;6.83;;
21166;SDS011;10741;52.272;9.580;2022-11-15T06:50:54;10.07;;;7.17;;
21166;SDS011;10741;52.272;9.580;2022-11-15T06:53:21;8.83;;;6.57;;
21166;SDS011;10741;52.272;9.580;2022-11-15T06:55:47;8.27;;;6.77;;
21166;SDS011;10741;52.272;9.580;2022-11-15T06:58:13;8.57;;;6.50;;
21166;SDS011;10741;52.272;9.580;2022-11-15T07:00:39;9.50;;;6.80;;
21166;SDS011;10741;52.272;9.580;2022-11-15T07:03:05;6.77;;;6.07;;
21166;SDS011;10741;52.272;9.580;2022-11-15T07:05:31;7.70;;;6.60;;
21166;SDS011;10741;52.272;9.580;2022-11-15T07:07:57;7.80;;;6.70;;
21166;SDS011;10741;52.272;9.580;2022-11-15T07:10:24;10.23;;;6.93;;
21166;SDS011;10741;52.272;9.580;2022-11-15T07:12:54;8.33;;;6.57;;
21166;SDS011;10741;52.272;9.580;2022-11-15T07:15:21;12.20;;;8.60;;
21166;SDS011;10741;52.272;9.580;2022-11-15T07:17:49;9.27;;;7.47;;
21166;SDS011;10741;52.272;9.580;2022-11-15T07:20:15;8.30;;;6.87;;
21166;SDS011;10741;52.272;9.580;2022-11-15T07:22:42;10.03;;;6.50;;
21166;SDS011;10741;52.272;9.580;2022-11-15T07:25:10;6.53;;;5.27;;
21166;SDS011;10741;52.272;9.580;2022-11-15T07:27:36;6.87;;;5.90;;
21166;SDS011;10741;52.272;9.580;2022-11-15T07:30:03;6.00;;;5.40;;
21166;SDS011;10741;52.272;9.580;2022-11-15T07:32:30;7.50;;;5.70;;
21166;SDS011;10741;52.272;9.580;2022-11-15T07:34:56;6.77;;;5.83;;
21166;SDS011;10741;52.272;9.580;2022-11-15T07:37:22;7.40;;;5.67;;
21166;SDS011;10741;52.272;9.580;2022-11-15T07:39:47;7.27;;;5.50;;
21166;SDS011;10741;52.272;9.580;2022-11-15T07:42:13;7.80;;;4.97;;
21166;SDS011;10741;52.272;9.580;2022-11-15T07:44:58;7.37;;;5.20;;
21166;SDS011;10741;52.272;9.580;2022-11-15T07:47:23;6.47;;;5.13;;
21166;SDS011;10741;52.272;9.580;2022-11-15T07:49:49;6.17;;;5.33;;
21166;SDS011;10741;52.272;9.580;2022-11-15T07:52:15;8.07;;;6.00;;
21166;SDS011;10741;52.272;9.580;2022-11-15T07:54:41;11.77;;;7.50;;
21166;SDS011;10741;52.272;9.580;2022-11-15T07:57:06;7.00;;;5.37;;
21166;SDS011;10741;52.272;9.580;2022-11-15T07:59:34;6.90;;;4.67;;
21166;SDS011;10741;52.272;9.580;2022-11-15T08:02:00;5.07;;;4.03;;
21166;SDS011;10741;52.272;9.580;2022-11-15T08:04:26;5.33;;;4.03;;
21166;SDS011;10741;52.272;9.580;2022-11-15T08:06:52;8.00;;;5.30;;
21166;SDS011;10741;52.272;9.580;2022-11-15T08:09:18;9.27;;;5.40;;
21166;SDS011;10741;52.272;9.580;2022-11-15T08:11:43;7.47;;;5.37;;
21166;SDS011;10741;52.272;9.580;2022-11-15T08:14:09;9.67;;;6.40;;
21166;SDS011;10741;52.272;9.580;2022-11-15T08:16:35;6.73;;;5.00;;
21166;SDS011;10741;52.272;9.580;2022-11-15T08:19:00;4.63;;;4.00;;
21166;SDS011;10741;52.272;9.580;2022-11-15T08:21:26;4.47;;;4.07;;
21166;SDS011;10741;52.272;9.580;2022-11-15T08:23:52;5.13;;;4.23;;
21166;SDS011;10741;52.272;9.580;2022-11-15T08:26:19;5.53;;;3.90;;
21166;SDS011;10741;52.272;9.580;2022-11-15T08:28:45;4.87;;;3.20;;
21166;SDS011;10741;52.272;9.580;2022-11-15T08:31:14;4.77;;;4.27;;
21166;SDS011;10741;52.272;9.580;2022-11-15T08:33:42;9.60;;;6.37;;
21166;SDS011;10741;52.272;9.580;2022-11-15T08:36:11;9.87;;;6.33;;
21166;SDS011;10741;52.272;9.580;2022-11-15T08:38:39;10.23;;;6.57;;
21166;SDS011;10741;52.272;9.580;2022-11-15T08:41:05;6.67;;;5.17;;
21166;SDS011;10741;52.272;9.580;2022-11-15T08:43:31;5.67;;;5.03;;
21166;SDS011;10741;52.272;9.580;2022-11-15T08:45:57;4.80;;;4.37;;
21166;SDS011;10741;52.272;9.580;2022-11-15T08:48:24;5.00;;;4.30;;
21166;SDS011;10741;52.272;9.580;2022-11-15T08:50:53;4.13;;;3.63;;
21166;SDS011;10741;52.272;9.580;2022-11-15T08:53:20;4.60;;;3.20;;
21166;SDS011;10741;52.272;9.580;2022-11-15T08:55:46;3.10;;;2.80;;
21166;SDS011;10741;52.272;9.580;2022-11-15T08:58:12;7.40;;;3.40;;
21166;SDS011;10741;52.272;9.580;2022-11-15T09:00:37;3.10;;;2.70;;
21166;SDS011;10741;52.272;9.580;2022-11-15T09:03:04;2.70;;;2.50;;
21166;SDS011;10741;52.272;9.580;2022-11-15T09:05:31;6.13;;;3.10;;
21166;SDS011;10741;52.272;9.580;2022-11-15T09:07:57;3.27;;;2.57;;
21166;SDS011;10741;52.272;9.580;2022-11-15T09:10:22;3.60;;;2.90;;
21166;SDS011;10741;52.272;9.580;2022-11-15T09:12:49;3.50;;;2.70;;
21166;SDS011;10741;52.272;9.580;2022-11-15T09:15:16;3.80;;;2.77;;
21166;SDS011;10741;52.272;9.580;2022-11-15T09:17:41;6.17;;;2.53;;
21166;SDS011;10741;52.272;9.580;2022-11-15T09:20:08;2.70;;;2.50;;
21166;SDS011;10741;52.272;9.580;2022-11-15T09:22:34;3.17;;;2.57;;
21166;SDS011;10741;52.272;9.580;2022-11-15T09:25:01;4.20;;;2.67;;
21166;SDS011;10741;52.272;9.580;2022-11-15T09:27:31;2.87;;;2.40;;
21166;SDS011;10741;52.272;9.580;2022-11-15T09:29:57;3.20;;;2.43;;
21166;SDS011;10741;52.272;9.580;2022-11-15T09:32:22;5.00;;;2.90;;
21166;SDS011;10741;52.272;9.580;2022-11-15T09:34:49;4.57;;;2.57;;
21166;SDS011;10741;52.272;9.580;2022-11-15T09:37:15;3.97;;;3.00;;
21166;SDS011;10741;52.272;9.580;2022-11-15T09:39:41;4.73;;;2.80;;
21166;SDS011;10741;52.272;9.580;2022-11-15T09:50:11;2.87;;;2.57;;
21166;SDS011;10741;52.272;9.580;2022-11-15T09:52:45;2.87;;;2.60;;
21166;SDS011;10741;52.272;9.580;2022-11-15T09:55:11;2.67;;;2.47;;
21166;SDS011;10741;52.272;9.580;2022-11-15T09:57:54;3.30;;;2.50;;
21166;SDS011;10741;52.272;9.580;2022-11-15T10:00:28;4.50;;;2.33;;
21166;SDS011;10741;52.272;9.580;2022-11-15T10:03:07;2.37;;;2.13;;
21166;SDS011;10741;52.272;9.580;2022-11-15T10:05:42;4.40;;;2.03;;
21166;SDS011;10741;52.272;9.580;2022-11-15T10:08:20;3.37;;;2.20;;
21166;SDS011;10741;52.272;9.580;2022-11-15T10:10:49;3.23;;;2.70;;
21166;SDS011;10741;52.272;9.580;2022-11-15T10:13:26;3.50;;;2.20;;
21166;SDS011;10741;52.272;9.580;2022-11-15T10:15:59;2.50;;;2.00;;
21166;SDS011;10741;52.272;9.580;2022-11-15T10:18:35;2.57;;;2.27;;
21166;SDS011;10741;52.272;9.580;2022-11-15T10:21:15;2.33;;;2.13;;
21166;SDS011;10741;52.272;9.580;2022-11-15T10:23:43;2.60;;;1.90;;
21166;SDS011;10741;52.272;9.580;2022-11-15T10:26:10;3.50;;;2.10;;
21166;SDS011;10741;52.272;9.580;2022-11-15T10:28:40;2.70;;;2.30;;
21166;SDS011;10741;52.272;9.580;2022-11-15T10:31:20;3.77;;;2.20;;
21166;SDS011;10741;52.272;9.580;2022-11-15T10:33:51;3.40;;;1.93;;
21166;SDS011;10741;52.272;9.580;2022-11-15T10:36:24;3.10;;;2.23;;
21166;SDS011;10741;52.272;9.580;2022-11-15T10:41:29;3.13;;;2.20;;
21166;SDS011;10741;52.272;9.580;2022-11-15T10:46:31;3.13;;;2.30;;
21166;SDS011;10741;52.272;9.580;2022-11-15T10:51:55;4.73;;;2.50;;
21166;SDS011;10741;52.272;9.580;2022-11-15T10:54:51;2.80;;;2.03;;
21166;SDS011;10741;52.272;9.580;2022-11-15T10:57:27;3.00;;;2.00;;
21166;SDS011;10741;52.272;9.580;2022-11-15T11:00:00;4.20;;;2.27;;
21166;SDS011;10741;52.272;9.580;2022-11-15T11:04:59;2.43;;;2.20;;
21166;SDS011;10741;52.272;9.580;2022-11-15T11:07:27;3.07;;;2.53;;
21166;SDS011;10741;52.272;9.580;2022-11-15T11:09:58;3.23;;;2.30;;
21166;SDS011;10741;52.272;9.580;2022-11-15T11:12:32;2.17;;;1.90;;
21166;SDS011;10741;52.272;9.580;2022-11-15T11:15:05;2.40;;;2.20;;
21166;SDS011;10741;52.272;9.580;2022-11-15T11:28:48;3.30;;;1.97;;
21166;SDS011;10741;52.272;9.580;2022-11-15T11:31:58;3.00;;;2.17;;
21166;SDS011;10741;52.272;9.580;2022-11-15T11:34:36;2.70;;;2.00;;
21166;SDS011;10741;52.272;9.580;2022-11-15T11:38:01;2.20;;;2.00;;
21166;SDS011;10741;52.272;9.580;2022-11-15T11:45:55;3.97;;;2.57;;
21166;SDS011;10741;52.272;9.580;2022-11-15T11:48:40;2.20;;;2.00;;
21166;SDS011;10741;52.272;9.580;2022-11-15T11:51:10;1.73;;;1.63;;
21166;SDS011;10741;52.272;9.580;2022-11-15T11:53:46;2.97;;;1.77;;
21166;SDS011;10741;52.272;9.580;2022-11-15T11:56:35;2.17;;;1.70;;
21166;SDS011;10741;52.272;9.580;2022-11-15T11:59:10;3.00;;;1.87;;
21166;SDS011;10741;52.272;9.580;2022-11-15T12:01:50;2.80;;;1.80;;
21166;SDS011;10741;52.272;9.580;2022-11-15T12:04:21;3.23;;;2.20;;
21166;SDS011;10741;52.272;9.580;2022-11-15T12:07:02;2.43;;;2.10;;
21166;SDS011;10741;52.272;9.580;2022-11-15T12:09:45;4.37;;;2.00;;
21166;SDS011;10741;52.272;9.580;2022-11-15T12:12:23;2.73;;;1.53;;
21166;SDS011;10741;52.272;9.580;2022-11-15T12:17:35;3.67;;;2.00;;
21166;SDS011;10741;52.272;9.580;2022-11-15T12:20:06;2.33;;;1.93;;
21166;SDS011;10741;52.272;9.580;2022-11-15T12:22:46;3.13;;;1.70;;
21166;SDS011;10741;52.272;9.580;2022-11-15T12:25:25;2.70;;;1.80;;
21166;SDS011;10741;52.272;9.580;2022-11-15T12:28:19;2.33;;;1.97;;
21166;SDS011;10741;52.272;9.580;2022-11-15T12:36:00;3.60;;;2.10;;
21166;SDS011;10741;52.272;9.580;2022-11-15T12:38:50;2.27;;;2.07;;
21166;SDS011;10741;52.272;9.580;2022-11-15T12:41:32;2.20;;;1.90;;
21166;SDS011;10741;52.272;9.580;2022-11-15T12:49:55;2.43;;;1.93;;
21166;SDS011;10741;52.272;9.580;2022-11-15T12:52:21;2.87;;;1.90;;
21166;SDS011;10741;52.272;9.580;2022-11-15T12:54:51;2.83;;;1.70;;
21166;SDS011;10741;52.272;9.580;2022-11-15T12:59:49;2.40;;;2.00;;
21166;SDS011;10741;52.272;9.580;2022-11-15T13:02:35;2.67;;;1.90;;
21166;SDS011;10741;52.272;9.580;2022-11-15T13:12:53;3.17;;;2.27;;
21166;SDS011;10741;52.272;9.580;2022-11-15T13:15:33;3.63;;;2.67;;
21166;SDS011;10741;52.272;9.580;2022-11-15T13:20:59;3.50;;;3.00;;
21166;SDS011;10741;52.272;9.580;2022-11-15T13:23:25;4.00;;;2.70;;
21166;SDS011;10741;52.272;9.580;2022-11-15T13:31:22;4.30;;;3.00;;
21166;SDS011;10741;52.272;9.580;2022-11-15T13:34:15;5.10;;;3.03;;
21166;SDS011;10741;52.272;9.580;2022-11-15T13:36:41;5.13;;;2.73;;
21166;SDS011;10741;52.272;9.580;2022-11-15T13:42:13;3.53;;;2.80;;
21166;SDS011;10741;52.272;9.580;2022-11-15T13:44:40;4.73;;;3.07;;
21166;SDS011;10741;52.272;9.580;2022-11-15T13:47:25;3.83;;;2.83;;
21166;SDS011;10741;52.272;9.580;2022-11-15T13:49:52;6.63;;;3.27;;
21166;SDS011;10741;52.272;9.580;2022-11-15T13:52:18;3.60;;;2.80;;
21166;SDS011;10741;52.272;9.580;2022-11-15T13:54:59;4.03;;;2.67;;
21166;SDS011;10741;52.272;9.580;2022-11-15T13:57:32;4.53;;;2.50;;
21166;SDS011;10741;52.272;9.580;2022-11-15T14:00:34;5.00;;;3.07;;
21166;SDS011;10741;52.272;9.580;2022-11-15T14:05:46;4.23;;;2.97;;
21166;SDS011;10741;52.272;9.580;2022-11-15T14:08:32;5.80;;;2.80;;
21166;SDS011;10741;52.272;9.580;2022-11-15T14:19:12;5.63;;;3.00;;
21166;SDS011;10741;52.272;9.580;2022-11-15T14:22:12;5.97;;;3.30;;
21166;SDS011;10741;52.272;9.580;2022-11-15T14:25:03;3.13;;;2.80;;
21166;SDS011;10741;52.272;9.580;2022-11-15T14:27:32;4.33;;;3.30;;
21166;SDS011;10741;52.272;9.580;2022-11-15T14:29:58;3.33;;;3.03;;
21166;SDS011;10741;52.272;9.580;2022-11-15T14:32:29;3.77;;;3.10;;
21166;SDS011;10741;52.272;9.580;2022-11-15T14:35:02;5.70;;;3.40;;
21166;SDS011;10741;52.272;9.580;2022-11-15T14:37:32;4.47;;;3.17;;
21166;SDS011;10741;52.272;9.580;2022-11-15T14:40:03;3.83;;;3.17;;
21166;SDS011;10741;52.272;9.580;2022-11-15T14:42:30;5.13;;;3.10;;
21166;SDS011;10741;52.272;9.580;2022-11-15T14:44:56;3.53;;;3.00;;
21166;SDS011;10741;52.272;9.580;2022-11-15T14:47:22;3.80;;;2.80;;
21166;SDS011;10741;52.272;9.580;2022-11-15T14:49:48;4.93;;;3.23;;
21166;SDS011;10741;52.272;9.580;2022-11-15T14:52:26;3.90;;;3.03;;
21166;SDS011;10741;52.272;9.580;2022-11-15T14:54:55;5.93;;;3.10;;
21166;SDS011;10741;52.272;9.580;2022-11-15T14:57:21;4.83;;;3.07;;
21166;SDS011;10741;52.272;9.580;2022-11-15T14:59:47;4.43;;;3.27;;
21166;SDS011;10741;52.272;9.580;2022-11-15T15:02:17;6.70;;;3.17;;
21166;SDS011;10741;52.272;9.580;2022-11-15T15:04:47;6.80;;;3.27;;
21166;SDS011;10741;52.272;9.580;2022-11-15T15:07:13;3.10;;;2.80;;
21166;SDS011;10741;52.272;9.580;2022-11-15T15:09:40;5.83;;;3.00;;
21166;SDS011;10741;52.272;9.580;2022-11-15T15:12:16;3.77;;;3.07;;
21166;SDS011;10741;52.272;9.580;2022-11-15T15:14:43;3.30;;;3.00;;
21166;SDS011;10741;52.272;9.580;2022-11-15T15:17:09;4.27;;;3.13;;
21166;SDS011;10741;52.272;9.580;2022-11-15T15:19:35;4.63;;;3.20;;
21166;SDS011;10741;52.272;9.580;2022-11-15T15:22:01;4.03;;;2.97;;
21166;SDS011;10741;52.272;9.580;2022-11-15T15:24:27;4.50;;;3.10;;
21166;SDS011;10741;52.272;9.580;2022-11-15T15:26:52;5.13;;;3.63;;
21166;SDS011;10741;52.272;9.580;2022-11-15T15:29:18;4.30;;;3.17;;
21166;SDS011;10741;52.272;9.580;2022-11-15T15:31:44;5.07;;;3.20;;
21166;SDS011;10741;52.272;9.580;2022-11-15T15:34:09;7.77;;;3.23;;
21166;SDS011;10741;52.272;9.580;2022-11-15T15:36:35;5.30;;;3.27;;
21166;SDS011;10741;52.272;9.580;2022-11-15T15:39:01;4.23;;;3.07;;
21166;SDS011;10741;52.272;9.580;2022-11-15T15:41:27;6.00;;;3.70;;
21166;SDS011;10741;52.272;9.580;2022-11-15T15:43:53;4.27;;;3.27;;
21166;SDS011;10741;52.272;9.580;2022-11-15T15:46:19;6.70;;;3.50;;
21166;SDS011;10741;52.272;9.580;2022-11-15T15:48:45;4.03;;;3.60;;
21166;SDS011;10741;52.272;9.580;2022-11-15T15:51:11;5.90;;;3.40;;
21166;SDS011;10741;52.272;9.580;2022-11-15T15:53:37;4.00;;;3.27;;
21166;SDS011;10741;52.272;9.580;2022-11-15T15:56:03;5.40;;;3.40;;
21166;SDS011;10741;52.272;9.580;2022-11-15T15:58:29;6.07;;;3.73;;
21166;SDS011;10741;52.272;9.580;2022-11-15T16:00:56;4.20;;;3.50;;
21166;SDS011;10741;52.272;9.580;2022-11-15T16:03:22;5.57;;;3.27;;
21166;SDS011;10741;52.272;9.580;2022-11-15T16:05:49;4.60;;;3.77;;
21166;SDS011;10741;52.272;9.580;2022-11-15T16:08:19;7.13;;;3.77;;
21166;SDS011;10741;52.272;9.580;2022-11-15T16:10:46;5.13;;;3.90;;
21166;SDS011;10741;52.272;9.580;2022-11-15T16:13:13;4.30;;;3.63;;
21166;SDS011;10741;52.272;9.580;2022-11-15T16:15:39;5.80;;;3.60;;
21166;SDS011;10741;52.272;9.580;2022-11-15T16:18:05;5.40;;;4.00;;
21166;SDS011;10741;52.272;9.580;2022-11-15T16:20:36;4.83;;;3.70;;
21166;SDS011;10741;52.272;9.580;2022-11-15T16:23:05;6.10;;;3.93;;
21166;SDS011;10741;52.272;9.580;2022-11-15T16:25:34;6.07;;;4.23;;
21166;SDS011;10741;52.272;9.580;2022-11-15T16:28:23;4.30;;;3.90;;
21166;SDS011;10741;52.272;9.580;2022-11-15T16:30:58;10.90;;;4.00;;
21166;SDS011;10741;52.272;9.580;2022-11-15T16:33:26;7.47;;;4.20;;
21166;SDS011;10741;52.272;9.580;2022-11-15T16:35:52;4.93;;;3.87;;
21166;SDS011;10741;52.272;9.580;2022-11-15T16:38:18;8.53;;;4.23;;
21166;SDS011;10741;52.272;9.580;2022-11-15T16:40:43;4.30;;;3.80;;
21166;SDS011;10741;52.272;9.580;2022-11-15T16:43:09;5.83;;;4.30;;
21166;SDS011;10741;52.272;9.580;2022-11-15T16:45:35;5.73;;;4.33;;
21166;SDS011;10741;52.272;9.580;2022-11-15T16:48:01;6.60;;;4.10;;
21166;SDS011;10741;52.272;9.580;2022-11-15T16:50:28;6.90;;;3.80;;
21166;SDS011;10741;52.272;9.580;2022-11-15T16:53:03;4.37;;;3.97;;
21166;SDS011;10741;52.272;9.580;2022-11-15T16:55:29;5.63;;;3.90;;
21166;SDS011;10741;52.272;9.580;2022-11-15T16:57:55;7.77;;;4.10;;